sensor_id;sensor_type;location;lat;lon;timestamp;P1;durP1;ratioP1;P2;durP2;ratioP2
11473;SDS011;5793;52.238;13.438;2022-12-07T00:01:03;17.77;;;11.70;;
11473;SDS011;5793;52.238;13.438;2022-12-07T00:03:32;16.83;;;11.17;;
11473;SDS011;5793;52.238;13.438;2022-12-07T00:06:00;18.20;;;11.67;;
11473;SDS011;5793;52.238;13.438;2022-12-07T00:08:29;17.90;;;11.23;;
11473;SDS011;5793;52.238;13.438;2022-12-07T00:11:00;17.20;;;10.97;;
11473;SDS011;5793;52.238;13.438;2022-12-07T00:13:29;16.87;;;10.90;;
11473;SDS011;5793;52.238;13.438;2022-12-07T00:16:00;16.47;;;9.90;;
11473;SDS011;5793;52.238;13.438;2022-12-07T00:18:29;13.37;;;9.33;;
11473;SDS011;5793;52.238;13.438;2022-12-07T00:21:00;12.80;;;9.33;;
11473;SDS011;5793;52.238;13.438;2022-12-07T00:23:28;12.80;;;8.83;;
11473;SDS011;5793;52.238;13.438;2022-12-07T00:26:02;13.67;;;8.67;;
11473;SDS011;5793;52.238;13.438;2022-12-07T00:28:30;11.30;;;8.43;;
11473;SDS011;5793;52.238;13.438;2022-12-07T00:31:01;11.17;;;8.17;;
11473;SDS011;5793;52.238;13.438;2022-12-07T00:33:31;10.73;;;8.07;;
11473;SDS011;5793;52.238;13.438;2022-12-07T00:36:00;9.50;;;7.70;;
11473;SDS011;5793;52.238;13.438;2022-12-07T00:38:29;8.20;;;6.40;;
11473;SDS011;5793;52.238;13.438;2022-12-07T00:40:59;7.93;;;6.17;;
11473;SDS011;5793;52.238;13.438;2022-12-07T00:43:27;7.53;;;5.77;;
11473;SDS011;5793;52.238;13.438;2022-12-07T00:45:56;6.67;;;5.67;;
11473;SDS011;5793;52.238;13.438;2022-12-07T00:48:25;7.70;;;6.50;;
11473;SDS011;5793;52.238;13.438;2022-12-07T00:50:53;7.40;;;6.20;;
11473;SDS011;5793;52.238;13.438;2022-12-07T00:53:21;8.13;;;6.37;;
11473;SDS011;5793;52.238;13.438;2022-12-07T00:55:49;8.07;;;6.23;;
11473;SDS011;5793;52.238;13.438;2022-12-07T00:58:18;8.13;;;6.30;;
11473;SDS011;5793;52.238;13.438;2022-12-07T01:00:46;9.23;;;7.07;;
11473;SDS011;5793;52.238;13.438;2022-12-07T01:03:14;8.17;;;6.43;;
11473;SDS011;5793;52.238;13.438;2022-12-07T01:05:49;7.77;;;6.13;;
11473;SDS011;5793;52.238;13.438;2022-12-07T01:08:18;7.90;;;5.80;;
11473;SDS011;5793;52.238;13.438;2022-12-07T01:10:47;7.47;;;5.87;;
11473;SDS011;5793;52.238;13.438;2022-12-07T01:13:14;9.13;;;5.93;;
11473;SDS011;5793;52.238;13.438;2022-12-07T01:15:43;7.50;;;5.73;;
11473;SDS011;5793;52.238;13.438;2022-12-07T01:18:11;8.30;;;6.00;;
11473;SDS011;5793;52.238;13.438;2022-12-07T01:20:39;8.50;;;5.83;;
11473;SDS011;5793;52.238;13.438;2022-12-07T01:23:08;8.50;;;5.97;;
11473;SDS011;5793;52.238;13.438;2022-12-07T01:25:36;8.23;;;6.27;;
11473;SDS011;5793;52.238;13.438;2022-12-07T01:28:04;9.30;;;6.97;;
11473;SDS011;5793;52.238;13.438;2022-12-07T01:30:31;8.67;;;6.87;;
11473;SDS011;5793;52.238;13.438;2022-12-07T01:32:59;10.47;;;7.73;;
11473;SDS011;5793;52.238;13.438;2022-12-07T01:35:27;11.80;;;7.60;;
11473;SDS011;5793;52.238;13.438;2022-12-07T01:37:55;9.40;;;7.70;;
11473;SDS011;5793;52.238;13.438;2022-12-07T01:40:24;9.27;;;7.07;;
11473;SDS011;5793;52.238;13.438;2022-12-07T01:42:52;8.33;;;6.83;;
11473;SDS011;5793;52.238;13.438;2022-12-07T01:48:12;8.57;;;7.13;;
11473;SDS011;5793;52.238;13.438;2022-12-07T01:50:43;11.13;;;7.73;;
11473;SDS011;5793;52.238;13.438;2022-12-07T01:53:15;10.40;;;7.73;;
11473;SDS011;5793;52.238;13.438;2022-12-07T01:55:47;13.13;;;9.60;;
11473;SDS011;5793;52.238;13.438;2022-12-07T01:58:17;11.53;;;9.07;;
11473;SDS011;5793;52.238;13.438;2022-12-07T02:00:45;12.07;;;8.30;;
11473;SDS011;5793;52.238;13.438;2022-12-07T02:03:13;9.47;;;7.33;;
11473;SDS011;5793;52.238;13.438;2022-12-07T02:05:45;9.97;;;7.20;;
11473;SDS011;5793;52.238;13.438;2022-12-07T02:08:15;9.37;;;7.17;;
11473;SDS011;5793;52.238;13.438;2022-12-07T02:10:46;9.57;;;7.40;;
11473;SDS011;5793;52.238;13.438;2022-12-07T02:13:14;10.60;;;7.33;;
11473;SDS011;5793;52.238;13.438;2022-12-07T02:15:49;8.47;;;6.60;;
11473;SDS011;5793;52.238;13.438;2022-12-07T02:18:30;11.10;;;7.40;;
11473;SDS011;5793;52.238;13.438;2022-12-07T02:21:07;10.07;;;7.03;;
11473;SDS011;5793;52.238;13.438;2022-12-07T02:23:50;9.50;;;7.00;;
11473;SDS011;5793;52.238;13.438;2022-12-07T02:26:39;10.97;;;7.30;;
11473;SDS011;5793;52.238;13.438;2022-12-07T02:29:18;12.23;;;9.30;;
11473;SDS011;5793;52.238;13.438;2022-12-07T02:31:51;11.80;;;8.90;;
11473;SDS011;5793;52.238;13.438;2022-12-07T02:34:26;15.03;;;9.07;;
11473;SDS011;5793;52.238;13.438;2022-12-07T02:37:01;11.10;;;7.50;;
11473;SDS011;5793;52.238;13.438;2022-12-07T02:39:37;10.33;;;7.53;;
11473;SDS011;5793;52.238;13.438;2022-12-07T02:42:13;11.63;;;7.73;;
11473;SDS011;5793;52.238;13.438;2022-12-07T02:44:46;11.83;;;8.17;;
11473;SDS011;5793;52.238;13.438;2022-12-07T02:47:16;9.70;;;7.30;;
11473;SDS011;5793;52.238;13.438;2022-12-07T02:49:46;11.20;;;7.57;;
11473;SDS011;5793;52.238;13.438;2022-12-07T02:52:16;10.07;;;7.13;;
11473;SDS011;5793;52.238;13.438;2022-12-07T02:54:44;9.30;;;7.00;;
11473;SDS011;5793;52.238;13.438;2022-12-07T02:57:14;9.07;;;6.63;;
11473;SDS011;5793;52.238;13.438;2022-12-07T03:00:01;8.83;;;6.20;;
11473;SDS011;5793;52.238;13.438;2022-12-07T03:02:35;11.30;;;8.40;;
11473;SDS011;5793;52.238;13.438;2022-12-07T03:05:13;11.53;;;8.00;;
11473;SDS011;5793;52.238;13.438;2022-12-07T03:07:58;11.00;;;6.97;;
11473;SDS011;5793;52.238;13.438;2022-12-07T03:10:32;9.13;;;6.33;;
11473;SDS011;5793;52.238;13.438;2022-12-07T03:13:09;8.33;;;6.43;;
11473;SDS011;5793;52.238;13.438;2022-12-07T03:15:41;8.67;;;6.00;;
11473;SDS011;5793;52.238;13.438;2022-12-07T03:18:13;9.33;;;6.40;;
11473;SDS011;5793;52.238;13.438;2022-12-07T03:20:45;8.23;;;5.93;;
11473;SDS011;5793;52.238;13.438;2022-12-07T03:23:17;9.33;;;6.53;;
11473;SDS011;5793;52.238;13.438;2022-12-07T03:25:47;9.40;;;6.47;;
11473;SDS011;5793;52.238;13.438;2022-12-07T03:28:24;9.60;;;6.53;;
11473;SDS011;5793;52.238;13.438;2022-12-07T03:30:59;11.07;;;7.33;;
11473;SDS011;5793;52.238;13.438;2022-12-07T03:33:31;12.87;;;7.70;;
11473;SDS011;5793;52.238;13.438;2022-12-07T03:36:04;11.60;;;7.60;;
11473;SDS011;5793;52.238;13.438;2022-12-07T03:38:36;13.33;;;9.70;;
11473;SDS011;5793;52.238;13.438;2022-12-07T03:41:08;12.90;;;8.73;;
11473;SDS011;5793;52.238;13.438;2022-12-07T03:43:39;13.83;;;8.70;;
11473;SDS011;5793;52.238;13.438;2022-12-07T03:46:14;13.93;;;8.93;;
11473;SDS011;5793;52.238;13.438;2022-12-07T03:48:47;13.93;;;8.87;;
11473;SDS011;5793;52.238;13.438;2022-12-07T03:51:22;16.27;;;9.77;;
11473;SDS011;5793;52.238;13.438;2022-12-07T03:53:54;14.50;;;9.43;;
11473;SDS011;5793;52.238;13.438;2022-12-07T03:56:26;15.53;;;9.97;;
11473;SDS011;5793;52.238;13.438;2022-12-07T03:58:56;17.90;;;10.73;;
11473;SDS011;5793;52.238;13.438;2022-12-07T04:01:25;16.87;;;10.20;;
11473;SDS011;5793;52.238;13.438;2022-12-07T04:03:54;20.27;;;11.83;;
11473;SDS011;5793;52.238;13.438;2022-12-07T04:06:22;21.13;;;13.30;;
11473;SDS011;5793;52.238;13.438;2022-12-07T04:08:55;21.03;;;12.70;;
11473;SDS011;5793;52.238;13.438;2022-12-07T04:11:26;22.10;;;12.97;;
11473;SDS011;5793;52.238;13.438;2022-12-07T04:13:54;24.90;;;13.37;;
11473;SDS011;5793;52.238;13.438;2022-12-07T04:16:41;24.47;;;13.83;;
11473;SDS011;5793;52.238;13.438;2022-12-07T04:19:10;25.63;;;14.57;;
11473;SDS011;5793;52.238;13.438;2022-12-07T04:21:38;27.37;;;14.87;;
11473;SDS011;5793;52.238;13.438;2022-12-07T04:24:06;27.97;;;15.77;;
11473;SDS011;5793;52.238;13.438;2022-12-07T04:26:34;30.63;;;16.50;;
11473;SDS011;5793;52.238;13.438;2022-12-07T04:29:03;28.57;;;16.97;;
11473;SDS011;5793;52.238;13.438;2022-12-07T04:31:33;34.40;;;16.53;;
11473;SDS011;5793;52.238;13.438;2022-12-07T04:34:02;32.00;;;17.73;;
11473;SDS011;5793;52.238;13.438;2022-12-07T04:36:31;39.80;;;21.33;;
11473;SDS011;5793;52.238;13.438;2022-12-07T04:38:59;35.17;;;19.33;;
11473;SDS011;5793;52.238;13.438;2022-12-07T04:41:27;36.53;;;21.27;;
11473;SDS011;5793;52.238;13.438;2022-12-07T04:43:55;43.50;;;23.03;;
11473;SDS011;5793;52.238;13.438;2022-12-07T04:46:24;41.43;;;24.30;;
11473;SDS011;5793;52.238;13.438;2022-12-07T04:48:53;44.30;;;25.27;;
11473;SDS011;5793;52.238;13.438;2022-12-07T04:51:23;44.67;;;24.07;;
11473;SDS011;5793;52.238;13.438;2022-12-07T04:53:52;46.20;;;24.53;;
11473;SDS011;5793;52.238;13.438;2022-12-07T04:56:22;46.90;;;23.97;;
11473;SDS011;5793;52.238;13.438;2022-12-07T04:58:51;46.03;;;24.27;;
11473;SDS011;5793;52.238;13.438;2022-12-07T05:01:20;44.70;;;23.03;;
11473;SDS011;5793;52.238;13.438;2022-12-07T05:03:49;44.30;;;21.60;;
11473;SDS011;5793;52.238;13.438;2022-12-07T05:06:18;43.77;;;22.47;;
11473;SDS011;5793;52.238;13.438;2022-12-07T05:08:47;44.00;;;22.93;;
11473;SDS011;5793;52.238;13.438;2022-12-07T05:11:15;42.57;;;21.13;;
11473;SDS011;5793;52.238;13.438;2022-12-07T05:13:57;42.13;;;21.00;;
11473;SDS011;5793;52.238;13.438;2022-12-07T05:16:25;48.70;;;22.70;;
11473;SDS011;5793;52.238;13.438;2022-12-07T05:18:53;43.67;;;21.23;;
11473;SDS011;5793;52.238;13.438;2022-12-07T05:21:21;43.77;;;20.77;;
11473;SDS011;5793;52.238;13.438;2022-12-07T05:23:51;46.00;;;22.73;;
11473;SDS011;5793;52.238;13.438;2022-12-07T05:26:18;44.63;;;22.50;;
11473;SDS011;5793;52.238;13.438;2022-12-07T05:28:49;49.90;;;25.00;;
11473;SDS011;5793;52.238;13.438;2022-12-07T05:31:18;51.07;;;22.60;;
11473;SDS011;5793;52.238;13.438;2022-12-07T05:33:46;47.30;;;23.50;;
11473;SDS011;5793;52.238;13.438;2022-12-07T05:36:14;49.93;;;23.80;;
11473;SDS011;5793;52.238;13.438;2022-12-07T05:38:42;53.77;;;24.17;;
11473;SDS011;5793;52.238;13.438;2022-12-07T05:41:13;53.17;;;22.57;;
11473;SDS011;5793;52.238;13.438;2022-12-07T05:43:56;50.63;;;24.00;;
11473;SDS011;5793;52.238;13.438;2022-12-07T05:46:24;53.23;;;24.80;;
11473;SDS011;5793;52.238;13.438;2022-12-07T05:48:52;52.40;;;23.63;;
11473;SDS011;5793;52.238;13.438;2022-12-07T05:51:20;56.37;;;23.50;;
11473;SDS011;5793;52.238;13.438;2022-12-07T05:53:48;58.77;;;25.57;;
11473;SDS011;5793;52.238;13.438;2022-12-07T05:56:17;53.50;;;25.23;;
11473;SDS011;5793;52.238;13.438;2022-12-07T05:58:45;51.13;;;23.33;;
11473;SDS011;5793;52.238;13.438;2022-12-07T06:01:30;58.77;;;24.37;;
11473;SDS011;5793;52.238;13.438;2022-12-07T06:03:58;56.30;;;25.93;;
11473;SDS011;5793;52.238;13.438;2022-12-07T06:06:25;56.67;;;24.07;;
11473;SDS011;5793;52.238;13.438;2022-12-07T06:08:53;57.53;;;24.77;;
11473;SDS011;5793;52.238;13.438;2022-12-07T06:11:22;53.00;;;25.17;;
11473;SDS011;5793;52.238;13.438;2022-12-07T06:14:08;55.43;;;25.90;;
11473;SDS011;5793;52.238;13.438;2022-12-07T06:16:36;55.27;;;24.60;;
11473;SDS011;5793;52.238;13.438;2022-12-07T06:19:04;56.33;;;24.03;;
11473;SDS011;5793;52.238;13.438;2022-12-07T06:21:31;49.33;;;23.80;;
11473;SDS011;5793;52.238;13.438;2022-12-07T06:23:59;55.63;;;25.57;;
11473;SDS011;5793;52.238;13.438;2022-12-07T06:26:29;56.80;;;25.27;;
11473;SDS011;5793;52.238;13.438;2022-12-07T06:28:57;53.50;;;24.40;;
11473;SDS011;5793;52.238;13.438;2022-12-07T06:31:25;49.00;;;23.73;;
11473;SDS011;5793;52.238;13.438;2022-12-07T06:33:56;49.03;;;24.90;;
11473;SDS011;5793;52.238;13.438;2022-12-07T06:36:24;52.47;;;25.73;;
11473;SDS011;5793;52.238;13.438;2022-12-07T06:38:53;49.30;;;23.57;;
11473;SDS011;5793;52.238;13.438;2022-12-07T06:41:21;48.57;;;24.63;;
11473;SDS011;5793;52.238;13.438;2022-12-07T06:43:50;51.47;;;25.07;;
11473;SDS011;5793;52.238;13.438;2022-12-07T06:46:21;49.93;;;24.63;;
11473;SDS011;5793;52.238;13.438;2022-12-07T06:48:50;54.40;;;24.37;;
11473;SDS011;5793;52.238;13.438;2022-12-07T06:51:18;51.40;;;24.43;;
11473;SDS011;5793;52.238;13.438;2022-12-07T06:53:46;48.93;;;25.07;;
11473;SDS011;5793;52.238;13.438;2022-12-07T06:56:13;60.80;;;29.13;;
11473;SDS011;5793;52.238;13.438;2022-12-07T06:58:41;55.23;;;26.97;;
11473;SDS011;5793;52.238;13.438;2022-12-07T07:01:11;53.70;;;25.80;;
11473;SDS011;5793;52.238;13.438;2022-12-07T07:03:41;55.17;;;26.17;;
11473;SDS011;5793;52.238;13.438;2022-12-07T07:06:09;51.97;;;25.33;;
11473;SDS011;5793;52.238;13.438;2022-12-07T07:08:38;49.37;;;25.00;;
11473;SDS011;5793;52.238;13.438;2022-12-07T07:11:07;51.93;;;25.13;;
11473;SDS011;5793;52.238;13.438;2022-12-07T07:13:35;50.47;;;24.33;;
11473;SDS011;5793;52.238;13.438;2022-12-07T07:16:04;51.17;;;25.53;;
11473;SDS011;5793;52.238;13.438;2022-12-07T07:18:34;47.70;;;23.70;;
11473;SDS011;5793;52.238;13.438;2022-12-07T07:21:02;49.07;;;24.13;;
11473;SDS011;5793;52.238;13.438;2022-12-07T07:23:30;48.83;;;24.33;;
11473;SDS011;5793;52.238;13.438;2022-12-07T07:25:58;48.50;;;24.80;;
11473;SDS011;5793;52.238;13.438;2022-12-07T07:28:25;46.73;;;22.83;;
11473;SDS011;5793;52.238;13.438;2022-12-07T07:30:53;45.20;;;23.97;;
11473;SDS011;5793;52.238;13.438;2022-12-07T07:33:21;43.27;;;23.87;;
11473;SDS011;5793;52.238;13.438;2022-12-07T07:35:50;44.63;;;24.47;;
11473;SDS011;5793;52.238;13.438;2022-12-07T07:38:18;46.17;;;24.77;;
11473;SDS011;5793;52.238;13.438;2022-12-07T07:40:46;44.43;;;23.63;;
11473;SDS011;5793;52.238;13.438;2022-12-07T07:43:13;41.00;;;23.67;;
11473;SDS011;5793;52.238;13.438;2022-12-07T07:45:41;39.23;;;23.17;;
11473;SDS011;5793;52.238;13.438;2022-12-07T07:48:09;38.00;;;22.10;;
11473;SDS011;5793;52.238;13.438;2022-12-07T07:50:37;39.47;;;22.93;;
11473;SDS011;5793;52.238;13.438;2022-12-07T07:53:06;40.33;;;23.20;;
11473;SDS011;5793;52.238;13.438;2022-12-07T07:55:34;43.73;;;23.00;;
11473;SDS011;5793;52.238;13.438;2022-12-07T07:58:02;37.07;;;22.33;;
11473;SDS011;5793;52.238;13.438;2022-12-07T08:00:29;39.23;;;21.43;;
11473;SDS011;5793;52.238;13.438;2022-12-07T08:02:57;38.87;;;21.97;;
11473;SDS011;5793;52.238;13.438;2022-12-07T08:05:25;35.00;;;21.27;;
11473;SDS011;5793;52.238;13.438;2022-12-07T08:07:53;39.40;;;22.10;;
11473;SDS011;5793;52.238;13.438;2022-12-07T08:10:22;40.63;;;21.93;;
11473;SDS011;5793;52.238;13.438;2022-12-07T08:12:49;34.17;;;21.07;;
11473;SDS011;5793;52.238;13.438;2022-12-07T08:15:36;34.60;;;20.80;;
11473;SDS011;5793;52.238;13.438;2022-12-07T08:18:05;32.63;;;19.90;;
11473;SDS011;5793;52.238;13.438;2022-12-07T08:20:34;34.77;;;19.90;;
11473;SDS011;5793;52.238;13.438;2022-12-07T08:23:03;32.90;;;20.00;;
11473;SDS011;5793;52.238;13.438;2022-12-07T08:25:32;31.80;;;19.83;;
11473;SDS011;5793;52.238;13.438;2022-12-07T08:28:01;27.10;;;16.90;;
11473;SDS011;5793;52.238;13.438;2022-12-07T08:30:29;30.03;;;18.73;;
11473;SDS011;5793;52.238;13.438;2022-12-07T08:32:57;27.63;;;17.80;;
11473;SDS011;5793;52.238;13.438;2022-12-07T08:35:25;27.30;;;17.20;;
11473;SDS011;5793;52.238;13.438;2022-12-07T08:37:53;29.40;;;16.63;;
11473;SDS011;5793;52.238;13.438;2022-12-07T08:40:21;26.73;;;14.83;;
11473;SDS011;5793;52.238;13.438;2022-12-07T08:42:50;22.63;;;15.20;;
11473;SDS011;5793;52.238;13.438;2022-12-07T08:45:18;24.53;;;13.60;;
11473;SDS011;5793;52.238;13.438;2022-12-07T08:47:53;17.70;;;12.73;;
11473;SDS011;5793;52.238;13.438;2022-12-07T08:50:26;14.03;;;9.20;;
11473;SDS011;5793;52.238;13.438;2022-12-07T08:52:56;13.43;;;8.97;;
11473;SDS011;5793;52.238;13.438;2022-12-07T08:55:25;13.47;;;9.20;;
11473;SDS011;5793;52.238;13.438;2022-12-07T08:57:55;12.70;;;9.13;;
11473;SDS011;5793;52.238;13.438;2022-12-07T09:00:24;18.80;;;10.37;;
11473;SDS011;5793;52.238;13.438;2022-12-07T09:02:53;15.80;;;10.30;;
11473;SDS011;5793;52.238;13.438;2022-12-07T09:05:20;20.70;;;11.27;;
11473;SDS011;5793;52.238;13.438;2022-12-07T09:07:50;20.57;;;11.60;;
11473;SDS011;5793;52.238;13.438;2022-12-07T09:10:21;19.60;;;12.60;;
11473;SDS011;5793;52.238;13.438;2022-12-07T09:12:49;20.57;;;12.70;;
11473;SDS011;5793;52.238;13.438;2022-12-07T09:15:18;16.67;;;10.93;;
11473;SDS011;5793;52.238;13.438;2022-12-07T09:17:46;15.90;;;10.87;;
11473;SDS011;5793;52.238;13.438;2022-12-07T09:20:14;18.93;;;11.23;;
11473;SDS011;5793;52.238;13.438;2022-12-07T09:22:42;13.93;;;9.50;;
11473;SDS011;5793;52.238;13.438;2022-12-07T09:25:09;15.33;;;9.13;;
11473;SDS011;5793;52.238;13.438;2022-12-07T09:27:37;12.77;;;8.03;;
11473;SDS011;5793;52.238;13.438;2022-12-07T09:30:06;10.90;;;7.70;;
11473;SDS011;5793;52.238;13.438;2022-12-07T09:32:35;9.33;;;6.93;;
11473;SDS011;5793;52.238;13.438;2022-12-07T09:35:03;9.77;;;7.43;;
11473;SDS011;5793;52.238;13.438;2022-12-07T09:37:31;8.87;;;5.70;;
11473;SDS011;5793;52.238;13.438;2022-12-07T09:40:02;12.30;;;7.20;;
11473;SDS011;5793;52.238;13.438;2022-12-07T09:42:32;15.63;;;9.67;;
11473;SDS011;5793;52.238;13.438;2022-12-07T09:45:05;7.90;;;5.30;;
11473;SDS011;5793;52.238;13.438;2022-12-07T09:47:33;6.47;;;4.47;;
11473;SDS011;5793;52.238;13.438;2022-12-07T09:50:03;6.07;;;3.53;;
11473;SDS011;5793;52.238;13.438;2022-12-07T09:52:34;7.03;;;3.70;;
11473;SDS011;5793;52.238;13.438;2022-12-07T09:55:08;8.77;;;5.07;;
11473;SDS011;5793;52.238;13.438;2022-12-07T09:57:38;4.63;;;4.17;;
11473;SDS011;5793;52.238;13.438;2022-12-07T10:00:10;6.80;;;4.17;;
11473;SDS011;5793;52.238;13.438;2022-12-07T10:02:42;6.87;;;3.93;;
11473;SDS011;5793;52.238;13.438;2022-12-07T10:05:14;5.93;;;3.90;;
11473;SDS011;5793;52.238;13.438;2022-12-07T10:07:49;5.53;;;3.90;;
11473;SDS011;5793;52.238;13.438;2022-12-07T10:10:19;5.17;;;3.60;;
11473;SDS011;5793;52.238;13.438;2022-12-07T10:12:58;9.27;;;3.73;;
11473;SDS011;5793;52.238;13.438;2022-12-07T10:15:40;6.03;;;3.30;;
11473;SDS011;5793;52.238;13.438;2022-12-07T10:18:19;4.97;;;3.37;;
11473;SDS011;5793;52.238;13.438;2022-12-07T10:21:01;5.93;;;4.00;;
11473;SDS011;5793;52.238;13.438;2022-12-07T10:23:33;4.63;;;3.40;;
11473;SDS011;5793;52.238;13.438;2022-12-07T10:26:16;5.10;;;3.87;;
11473;SDS011;5793;52.238;13.438;2022-12-07T10:28:47;4.20;;;3.50;;
11473;SDS011;5793;52.238;13.438;2022-12-07T10:31:16;4.23;;;3.50;;
11473;SDS011;5793;52.238;13.438;2022-12-07T10:33:51;7.17;;;5.23;;
11473;SDS011;5793;52.238;13.438;2022-12-07T10:36:22;5.43;;;3.90;;
11473;SDS011;5793;52.238;13.438;2022-12-07T10:38:51;3.97;;;3.40;;
11473;SDS011;5793;52.238;13.438;2022-12-07T10:41:25;5.73;;;3.97;;
11473;SDS011;5793;52.238;13.438;2022-12-07T10:43:54;4.00;;;3.40;;
11473;SDS011;5793;52.238;13.438;2022-12-07T10:46:32;4.20;;;3.40;;
11473;SDS011;5793;52.238;13.438;2022-12-07T10:49:25;4.40;;;3.33;;
11473;SDS011;5793;52.238;13.438;2022-12-07T10:52:14;5.20;;;3.80;;
11473;SDS011;5793;52.238;13.438;2022-12-07T10:54:49;5.63;;;3.80;;
11473;SDS011;5793;52.238;13.438;2022-12-07T10:57:32;4.97;;;3.27;;
11473;SDS011;5793;52.238;13.438;2022-12-07T11:00:18;5.57;;;3.50;;
11473;SDS011;5793;52.238;13.438;2022-12-07T11:02:55;5.80;;;3.63;;
11473;SDS011;5793;52.238;13.438;2022-12-07T11:05:42;4.53;;;3.33;;
11473;SDS011;5793;52.238;13.438;2022-12-07T11:08:18;4.37;;;3.23;;
11473;SDS011;5793;52.238;13.438;2022-12-07T11:10:55;6.27;;;3.37;;
11473;SDS011;5793;52.238;13.438;2022-12-07T11:13:29;17.80;;;9.80;;
11473;SDS011;5793;52.238;13.438;2022-12-07T11:16:08;19.63;;;11.17;;
11473;SDS011;5793;52.238;13.438;2022-12-07T11:19:16;9.73;;;5.10;;
11473;SDS011;5793;52.238;13.438;2022-12-07T11:21:56;5.83;;;3.03;;
11473;SDS011;5793;52.238;13.438;2022-12-07T11:24:26;10.00;;;5.47;;
11473;SDS011;5793;52.238;13.438;2022-12-07T11:27:03;3.80;;;2.93;;
11473;SDS011;5793;52.238;13.438;2022-12-07T11:32:45;6.27;;;4.23;;
11473;SDS011;5793;52.238;13.438;2022-12-07T11:35:26;7.17;;;3.53;;
11473;SDS011;5793;52.238;13.438;2022-12-07T11:38:06;8.53;;;4.73;;
11473;SDS011;5793;52.238;13.438;2022-12-07T11:40:38;4.60;;;3.03;;
11473;SDS011;5793;52.238;13.438;2022-12-07T11:43:11;3.73;;;2.73;;
11473;SDS011;5793;52.238;13.438;2022-12-07T11:45:46;5.37;;;3.87;;
11473;SDS011;5793;52.238;13.438;2022-12-07T11:48:18;5.57;;;3.70;;
11473;SDS011;5793;52.238;13.438;2022-12-07T11:50:51;4.37;;;3.00;;
11473;SDS011;5793;52.238;13.438;2022-12-07T11:53:24;9.60;;;4.87;;
11473;SDS011;5793;52.238;13.438;2022-12-07T11:55:56;6.40;;;4.33;;
11473;SDS011;5793;52.238;13.438;2022-12-07T11:58:34;9.17;;;6.37;;
11473;SDS011;5793;52.238;13.438;2022-12-07T12:01:25;6.57;;;3.00;;
11473;SDS011;5793;52.238;13.438;2022-12-07T12:04:05;7.37;;;3.77;;
11473;SDS011;5793;52.238;13.438;2022-12-07T12:06:44;5.63;;;3.23;;
11473;SDS011;5793;52.238;13.438;2022-12-07T12:09:14;3.10;;;2.60;;
11473;SDS011;5793;52.238;13.438;2022-12-07T12:12:15;3.90;;;2.93;;
11473;SDS011;5793;52.238;13.438;2022-12-07T12:15:16;6.10;;;3.10;;
11473;SDS011;5793;52.238;13.438;2022-12-07T12:17:54;5.47;;;3.10;;
11473;SDS011;5793;52.238;13.438;2022-12-07T12:20:31;5.90;;;2.60;;
11473;SDS011;5793;52.238;13.438;2022-12-07T12:23:05;5.67;;;3.03;;
11473;SDS011;5793;52.238;13.438;2022-12-07T12:25:40;6.33;;;2.97;;
11473;SDS011;5793;52.238;13.438;2022-12-07T12:28:18;5.73;;;2.83;;
11473;SDS011;5793;52.238;13.438;2022-12-07T12:31:07;7.30;;;3.23;;
11473;SDS011;5793;52.238;13.438;2022-12-07T12:33:42;5.67;;;3.60;;
11473;SDS011;5793;52.238;13.438;2022-12-07T12:36:20;5.03;;;3.37;;
11473;SDS011;5793;52.238;13.438;2022-12-07T12:39:07;6.47;;;3.00;;
11473;SDS011;5793;52.238;13.438;2022-12-07T12:41:59;6.07;;;3.27;;
11473;SDS011;5793;52.238;13.438;2022-12-07T12:44:40;9.67;;;4.30;;
11473;SDS011;5793;52.238;13.438;2022-12-07T12:47:41;5.30;;;3.43;;
11473;SDS011;5793;52.238;13.438;2022-12-07T12:50:12;5.73;;;3.27;;
11473;SDS011;5793;52.238;13.438;2022-12-07T12:52:54;8.07;;;3.97;;
11473;SDS011;5793;52.238;13.438;2022-12-07T12:55:30;9.70;;;3.70;;
11473;SDS011;5793;52.238;13.438;2022-12-07T12:58:40;7.57;;;3.90;;
11473;SDS011;5793;52.238;13.438;2022-12-07T13:01:36;6.37;;;3.33;;
11473;SDS011;5793;52.238;13.438;2022-12-07T13:10:29;6.10;;;3.13;;
11473;SDS011;5793;52.238;13.438;2022-12-07T13:13:25;6.60;;;3.93;;
11473;SDS011;5793;52.238;13.438;2022-12-07T13:25:26;5.60;;;3.23;;
11473;SDS011;5793;52.238;13.438;2022-12-07T13:28:09;10.87;;;4.60;;
11473;SDS011;5793;52.238;13.438;2022-12-07T13:30:43;15.17;;;10.23;;
11473;SDS011;5793;52.238;13.438;2022-12-07T13:33:14;4.40;;;2.93;;
11473;SDS011;5793;52.238;13.438;2022-12-07T13:35:45;3.90;;;2.37;;
11473;SDS011;5793;52.238;13.438;2022-12-07T13:38:19;4.50;;;3.20;;
11473;SDS011;5793;52.238;13.438;2022-12-07T13:41:00;6.07;;;2.40;;
11473;SDS011;5793;52.238;13.438;2022-12-07T13:43:45;16.60;;;9.87;;
11473;SDS011;5793;52.238;13.438;2022-12-07T13:46:15;7.77;;;2.97;;
11473;SDS011;5793;52.238;13.438;2022-12-07T13:48:45;7.23;;;5.20;;
11473;SDS011;5793;52.238;13.438;2022-12-07T13:51:18;8.73;;;3.67;;
11473;SDS011;5793;52.238;13.438;2022-12-07T13:53:50;7.77;;;4.30;;
11473;SDS011;5793;52.238;13.438;2022-12-07T13:56:21;9.40;;;4.80;;
11473;SDS011;5793;52.238;13.438;2022-12-07T13:58:51;8.53;;;2.90;;
11473;SDS011;5793;52.238;13.438;2022-12-07T14:01:19;5.53;;;3.07;;
11473;SDS011;5793;52.238;13.438;2022-12-07T14:03:47;8.10;;;3.83;;
11473;SDS011;5793;52.238;13.438;2022-12-07T14:06:17;22.13;;;17.30;;
11473;SDS011;5793;52.238;13.438;2022-12-07T14:08:50;6.93;;;3.40;;
11473;SDS011;5793;52.238;13.438;2022-12-07T14:11:28;13.80;;;3.60;;
11473;SDS011;5793;52.238;13.438;2022-12-07T14:13:57;12.57;;;8.53;;
11473;SDS011;5793;52.238;13.438;2022-12-07T14:16:27;6.70;;;4.47;;
11473;SDS011;5793;52.238;13.438;2022-12-07T14:18:57;8.37;;;4.57;;
11473;SDS011;5793;52.238;13.438;2022-12-07T14:21:26;6.23;;;4.30;;
11473;SDS011;5793;52.238;13.438;2022-12-07T14:24:07;14.70;;;9.40;;
11473;SDS011;5793;52.238;13.438;2022-12-07T14:26:42;20.27;;;13.47;;
11473;SDS011;5793;52.238;13.438;2022-12-07T14:29:21;14.53;;;6.43;;
11473;SDS011;5793;52.238;13.438;2022-12-07T14:31:56;6.60;;;3.53;;
11473;SDS011;5793;52.238;13.438;2022-12-07T14:34:25;7.10;;;4.63;;
11473;SDS011;5793;52.238;13.438;2022-12-07T14:36:53;12.33;;;5.87;;
11473;SDS011;5793;52.238;13.438;2022-12-07T14:39:22;32.40;;;20.73;;
11473;SDS011;5793;52.238;13.438;2022-12-07T14:41:50;7.40;;;4.10;;
11473;SDS011;5793;52.238;13.438;2022-12-07T14:44:18;7.97;;;4.07;;
11473;SDS011;5793;52.238;13.438;2022-12-07T14:46:50;8.90;;;4.50;;
11473;SDS011;5793;52.238;13.438;2022-12-07T14:49:38;5.93;;;3.40;;
11473;SDS011;5793;52.238;13.438;2022-12-07T14:52:06;11.40;;;4.37;;
11473;SDS011;5793;52.238;13.438;2022-12-07T14:55:01;9.57;;;5.07;;
11473;SDS011;5793;52.238;13.438;2022-12-07T14:57:31;9.00;;;4.67;;
11473;SDS011;5793;52.238;13.438;2022-12-07T14:59:59;5.20;;;4.13;;
11473;SDS011;5793;52.238;13.438;2022-12-07T15:02:26;7.80;;;4.77;;
11473;SDS011;5793;52.238;13.438;2022-12-07T15:04:54;7.33;;;4.63;;
11473;SDS011;5793;52.238;13.438;2022-12-07T15:07:22;9.90;;;4.70;;
11473;SDS011;5793;52.238;13.438;2022-12-07T15:09:50;10.63;;;5.13;;
11473;SDS011;5793;52.238;13.438;2022-12-07T15:12:19;8.37;;;4.70;;
11473;SDS011;5793;52.238;13.438;2022-12-07T15:14:47;5.57;;;4.23;;
11473;SDS011;5793;52.238;13.438;2022-12-07T15:17:14;7.20;;;5.13;;
11473;SDS011;5793;52.238;13.438;2022-12-07T15:19:56;7.87;;;4.10;;
11473;SDS011;5793;52.238;13.438;2022-12-07T15:22:24;9.17;;;4.10;;
11473;SDS011;5793;52.238;13.438;2022-12-07T15:24:52;18.80;;;9.93;;
11473;SDS011;5793;52.238;13.438;2022-12-07T15:27:21;11.77;;;4.20;;